Time;durP1;ratioP1;P1;durP2;ratioP2;P2;SDS_P1;SDS_P2;PMS_P1;PMS_P2;Temp;Humidity;BMP_temperature;BMP_pressure;BME280_temperature;BME280_humidity;BME280_pressure;Samples;Min_cycle;Max_cycle;Signal;HPM_P1;HPM_P2
2022/12/07 00:00:41;;;;;;;2.97;2.78;;;15.80;62.80;;;;;;4989892;28;20062;-20
2022/12/07 00:03:06;;;;;;;2.45;2.35;;;15.80;62.80;;;;;;4990150;28;20069;-24
2022/12/07 00:05:32;;;;;;;3.45;3.25;;;15.80;62.80;;;;;;4990729;28;20058;-21
2022/12/07 00:07:57;;;;;;;3.15;2.95;;;15.80;62.70;;;;;;4989853;28;20105;-20
2022/12/07 00:10:23;;;;;;;2.55;2.38;;;15.80;62.80;;;;;;4990474;28;20754;-20
2022/12/07 00:12:49;;;;;;;2.65;2.45;;;15.80;62.80;;;;;;4990037;28;20038;-20
2022/12/07 00:15:15;;;;;;;2.30;2.20;;;15.80;62.80;;;;;;4989020;28;20086;-19
2022/12/07 00:17:41;;;;;;;2.28;2.17;;;15.80;62.80;;;;;;4990281;28;20076;-20
2022/12/07 00:20:07;;;;;;;2.47;2.38;;;15.80;62.80;;;;;;4988822;28;20070;-20
2022/12/07 00:22:32;;;;;;;2.13;2.03;;;15.80;62.80;;;;;;4989745;28;20047;-26
2022/12/07 00:24:58;;;;;;;2.55;2.42;;;15.70;62.80;;;;;;4986318;28;20063;-19
2022/12/07 00:27:23;;;;;;;2.92;2.72;;;15.70;62.80;;;;;;4989647;28;20034;-20
2022/12/07 00:29:49;;;;;;;2.50;2.40;;;15.80;62.70;;;;;;4989758;28;20514;-20
2022/12/07 00:32:14;;;;;;;2.53;2.42;;;15.80;62.70;;;;;;4988797;28;21238;-20
2022/12/07 00:34:40;;;;;;;2.58;2.38;;;15.80;62.80;;;;;;4987748;28;20050;-19
2022/12/07 00:37:06;;;;;;;2.47;2.38;;;15.70;62.80;;;;;;4985171;28;20125;-20
2022/12/07 00:39:31;;;;;;;3.00;2.78;;;15.70;62.90;;;;;;4990116;28;20046;-20
2022/12/07 00:41:57;;;;;;;2.47;2.38;;;15.70;63.00;;;;;;4987962;28;20054;-18
2022/12/07 00:44:22;;;;;;;2.15;2.05;;;15.70;62.80;;;;;;4988958;28;20577;-20
2022/12/07 00:46:48;;;;;;;2.92;2.72;;;15.70;62.80;;;;;;4988985;28;20038;-20
2022/12/07 00:49:13;;;;;;;2.13;2.03;;;15.70;62.80;;;;;;4989000;28;20105;-19
2022/12/07 00:51:39;;;;;;;2.65;2.55;;;15.70;62.90;;;;;;4990191;28;20030;-16
2022/12/07 00:54:05;;;;;;;2.80;2.70;;;15.70;62.90;;;;;;4989508;28;20519;-17
2022/12/07 00:56:30;;;;;;;2.05;1.95;;;15.70;62.90;;;;;;4988618;28;20036;-16
2022/12/07 00:58:57;;;;;;;2.38;2.13;;;15.70;62.80;;;;;;4989108;28;20515;-16
2022/12/07 01:01:24;;;;;;;2.20;2.10;;;15.70;62.90;;;;;;4987682;28;20476;-16
2022/12/07 01:03:50;;;;;;;2.22;2.13;;;15.60;62.80;;;;;;4989442;28;20700;-17
2022/12/07 01:06:16;;;;;;;2.05;1.95;;;15.70;62.80;;;;;;4989031;28;20165;-16
2022/12/07 01:08:42;;;;;;;1.98;1.88;;;15.60;62.80;;;;;;4989636;28;20364;-19
2022/12/07 01:11:09;;;;;;;2.58;2.40;;;15.60;62.80;;;;;;4988967;28;20031;-16
2022/12/07 01:13:35;;;;;;;2.40;2.20;;;15.60;62.90;;;;;;4987505;28;20046;-16
2022/12/07 01:16:02;;;;;;;2.33;2.22;;;15.60;63.00;;;;;;4988980;28;20046;-17
2022/12/07 01:18:28;;;;;;;2.40;2.30;;;15.60;62.80;;;;;;4988362;28;20038;-19
2022/12/07 01:21:04;;;;;;;2.33;2.22;;;15.60;62.80;;;;;;4989587;28;20463;-16
2022/12/07 01:23:30;;;;;;;2.28;2.17;;;15.50;62.80;;;;;;4987102;28;20050;-16
2022/12/07 01:26:00;;;;;;;2.33;2.20;;;15.60;62.90;;;;;;4989448;28;20169;-16
2022/12/07 01:28:26;;;;;;;2.65;2.45;;;15.60;62.80;;;;;;4986570;28;20046;-16
2022/12/07 01:31:04;;;;;;;3.10;2.75;;;15.60;62.70;;;;;;4988207;28;20042;-17
2022/12/07 01:33:32;;;;;;;2.38;2.28;;;15.60;62.80;;;;;;4987829;28;20039;-17
2022/12/07 01:36:05;;;;;;;2.90;2.72;;;15.60;62.90;;;;;;4988288;28;20046;-16
2022/12/07 01:38:31;;;;;;;2.83;2.63;;;15.50;62.80;;;;;;4987135;28;20051;-23
2022/12/07 01:40:57;;;;;;;2.40;2.30;;;15.60;62.70;;;;;;4989050;28;20177;-16
2022/12/07 01:43:23;;;;;;;2.50;2.40;;;15.60;62.80;;;;;;4980696;28;20626;-16
2022/12/07 01:45:49;;;;;;;2.67;2.47;;;15.50;62.90;;;;;;4985567;28;20048;-25
2022/12/07 01:48:15;;;;;;;2.33;2.22;;;15.50;62.80;;;;;;4983679;28;20042;-16
2022/12/07 01:50:42;;;;;;;2.25;2.15;;;15.50;62.80;;;;;;4987178;28;20076;-16
2022/12/07 01:53:08;;;;;;;2.30;2.10;;;15.50;62.80;;;;;;4987604;28;20052;-16
2022/12/07 01:55:34;;;;;;;2.20;2.10;;;15.50;62.70;;;;;;4988743;28;20515;-17
2022/12/07 01:58:00;;;;;;;2.97;2.78;;;15.50;62.70;;;;;;5001227;28;20085;-16
2022/12/07 02:00:26;;;;;;;2.60;2.47;;;15.50;62.70;;;;;;4986746;28;20069;-16
2022/12/07 02:02:53;;;;;;;2.58;2.47;;;15.50;62.70;;;;;;4988912;28;20050;-16
2022/12/07 02:05:19;;;;;;;2.35;2.22;;;15.50;62.90;;;;;;4985769;28;20053;-16
2022/12/07 02:07:44;;;;;;;2.33;2.20;;;15.40;62.80;;;;;;4988551;28;20038;-24
2022/12/07 02:10:20;;;;;;;2.45;2.35;;;15.40;63.00;;;;;;4966395;28;20527;-16
2022/12/07 02:12:48;;;;;;;2.22;2.13;;;15.40;63.10;;;;;;4986412;28;20050;-16
2022/12/07 02:15:13;;;;;;;2.80;2.47;;;15.40;63.00;;;;;;4985852;28;20046;-17
2022/12/07 02:17:42;;;;;;;2.20;2.10;;;15.40;62.80;;;;;;4987431;28;20068;-16
2022/12/07 02:20:20;;;;;;;2.63;2.45;;;15.40;63.00;;;;;;4986343;28;20054;-16
2022/12/07 02:22:48;;;;;;;2.45;2.35;;;15.50;62.90;;;;;;4986720;28;20045;-18
2022/12/07 02:25:40;;;;;;;1.95;1.85;;;15.40;62.80;;;;;;4985630;28;20213;-16
2022/12/07 02:28:26;;;;;;;2.30;2.20;;;15.50;62.80;;;;;;4983130;28;20496;-17
2022/12/07 02:30:52;;;;;;;2.78;2.63;;;15.50;62.80;;;;;;4987193;28;20099;-17
2022/12/07 02:33:29;;;;;;;2.00;1.90;;;15.40;62.80;;;;;;4985697;28;20504;-17
2022/12/07 02:36:07;;;;;;;2.28;2.17;;;15.40;62.80;;;;;;4984317;28;20062;-16
2022/12/07 02:38:43;;;;;;;2.45;2.25;;;15.50;62.70;;;;;;4984860;28;20273;-16
2022/12/07 02:41:20;;;;;;;2.47;2.38;;;15.40;62.70;;;;;;4967088;28;20051;-16
2022/12/07 02:43:47;;;;;;;2.13;2.03;;;15.40;62.90;;;;;;4981254;28;20081;-16
2022/12/07 02:46:22;;;;;;;2.13;2.03;;;15.40;62.90;;;;;;4984537;28;20038;-16
2022/12/07 02:48:47;;;;;;;2.42;2.33;;;15.40;62.80;;;;;;4986219;28;20125;-16
2022/12/07 02:51:13;;;;;;;2.20;2.10;;;15.40;62.90;;;;;;4987341;28;20125;-16
2022/12/07 02:53:40;;;;;;;2.33;2.22;;;15.40;62.60;;;;;;4984659;28;20504;-16
2022/12/07 02:56:08;;;;;;;2.20;2.10;;;15.40;62.70;;;;;;4986572;28;20563;-16
2022/12/07 02:59:14;;;;;;;2.20;2.10;;;15.40;62.80;;;;;;4983011;28;20043;-16
2022/12/07 03:01:45;;;;;;;2.08;1.98;;;15.30;62.70;;;;;;4987447;28;20034;-21
2022/12/07 03:04:24;;;;;;;2.10;2.00;;;15.30;62.70;;;;;;4983386;28;20065;-16
2022/12/07 03:07:00;;;;;;;1.83;1.73;;;15.30;62.70;;;;;;4983067;28;20134;-23
2022/12/07 03:09:46;;;;;;;2.05;1.95;;;15.30;62.50;;;;;;4997255;28;20054;-17
2022/12/07 03:12:18;;;;;;;1.90;1.80;;;15.30;62.80;;;;;;4982630;28;20245;-19
2022/12/07 03:14:50;;;;;;;2.00;1.90;;;15.30;62.80;;;;;;4983894;28;20125;-16
2022/12/07 03:17:18;;;;;;;1.88;1.77;;;15.30;62.50;;;;;;4984545;28;20050;-16
2022/12/07 03:19:43;;;;;;;1.90;1.80;;;15.30;62.70;;;;;;4970165;28;20096;-17
2022/12/07 03:22:10;;;;;;;3.70;1.92;;;15.30;62.60;;;;;;4984054;28;20042;-16
2022/12/07 03:24:44;;;;;;;1.85;1.75;;;15.30;62.70;;;;;;4987362;28;20039;-17
2022/12/07 03:27:31;;;;;;;1.92;1.83;;;15.30;62.70;;;;;;4982659;28;20058;-16
2022/12/07 03:30:07;;;;;;;1.83;1.73;;;15.30;62.80;;;;;;4987376;28;20054;-18
2022/12/07 03:32:39;;;;;;;2.00;1.90;;;15.30;62.70;;;;;;4988292;28;20109;-16
2022/12/07 03:35:21;;;;;;;2.15;2.05;;;15.30;62.50;;;;;;4973126;28;20058;-23
2022/12/07 03:38:09;;;;;;;2.17;1.98;;;15.30;62.50;;;;;;4981854;28;20089;-16
2022/12/07 03:40:52;;;;;;;1.65;1.55;;;15.20;62.70;;;;;;4985170;28;20093;-16
2022/12/07 03:43:18;;;;;;;2.15;2.05;;;15.20;62.70;;;;;;4973847;28;20622;-15
2022/12/07 03:46:10;;;;;;;2.20;2.10;;;15.20;62.70;;;;;;4973355;28;20042;-16
2022/12/07 03:48:38;;;;;;;2.20;2.10;;;15.30;62.60;;;;;;4974669;28;20565;-16
2022/12/07 03:51:07;;;;;;;2.25;2.15;;;15.20;62.50;;;;;;4973834;28;20046;-16
2022/12/07 03:53:39;;;;;;;2.30;2.20;;;15.20;62.70;;;;;;4986448;28;20112;-17
2022/12/07 03:56:05;;;;;;;2.30;2.20;;;15.20;62.70;;;;;;4989875;28;20050;-16
2022/12/07 03:58:31;;;;;;;1.95;1.85;;;15.20;62.70;;;;;;4987036;28;20082;-16
2022/12/07 04:00:56;;;;;;;2.22;2.13;;;15.20;62.50;;;;;;4985705;28;20038;-16
2022/12/07 04:03:22;;;;;;;2.22;2.13;;;15.20;62.50;;;;;;4987675;28;20091;-16
2022/12/07 04:05:48;;;;;;;2.30;2.10;;;15.20;62.50;;;;;;4991150;28;20042;-16
2022/12/07 04:08:13;;;;;;;2.28;2.17;;;15.20;62.60;;;;;;4986775;28;20041;-17
2022/12/07 04:10:39;;;;;;;2.10;2.00;;;15.20;62.70;;;;;;4990173;28;20659;-16
2022/12/07 04:13:04;;;;;;;1.83;1.73;;;15.20;62.60;;;;;;4984365;28;21595;-16
2022/12/07 04:15:30;;;;;;;1.80;1.70;;;15.20;62.50;;;;;;4990381;28;20057;-17
2022/12/07 04:17:55;;;;;;;2.08;1.98;;;15.20;62.50;;;;;;4989869;28;20042;-17
2022/12/07 04:20:21;;;;;;;1.85;1.75;;;15.20;62.70;;;;;;4991544;28;20084;-26
2022/12/07 04:22:47;;;;;;;1.52;1.42;;;15.20;62.60;;;;;;4987150;28;20046;-17
2022/12/07 04:25:12;;;;;;;2.20;2.10;;;15.20;62.80;;;;;;4989398;28;20050;-20
2022/12/07 04:27:38;;;;;;;2.10;2.00;;;15.20;62.60;;;;;;4986782;28;20065;-16
2022/12/07 04:30:04;;;;;;;1.92;1.83;;;15.20;62.40;;;;;;4987756;28;20587;-16
2022/12/07 04:32:29;;;;;;;2.03;1.92;;;15.20;62.50;;;;;;4989789;28;20170;-17
2022/12/07 04:34:55;;;;;;;2.08;1.98;;;15.20;62.30;;;;;;4990390;28;20131;-16
2022/12/07 04:37:21;;;;;;;1.92;1.83;;;15.20;62.40;;;;;;4988263;28;20503;-16
2022/12/07 04:39:46;;;;;;;2.00;1.90;;;15.10;62.50;;;;;;4988908;28;20077;-16
2022/12/07 04:42:12;;;;;;;2.03;1.92;;;15.20;62.60;;;;;;4987283;28;20076;-16
2022/12/07 04:44:38;;;;;;;1.83;1.73;;;15.20;62.40;;;;;;4989947;28;20538;-17
2022/12/07 04:47:04;;;;;;;2.13;2.03;;;15.20;62.50;;;;;;4989222;28;20062;-16
2022/12/07 04:49:29;;;;;;;1.77;1.67;;;15.10;62.40;;;;;;4988369;28;20042;-17
2022/12/07 04:51:55;;;;;;;1.77;1.70;;;15.20;62.50;;;;;;4988809;28;20512;-16
2022/12/07 04:54:20;;;;;;;2.00;1.90;;;15.10;62.30;;;;;;4988636;28;20122;-16
2022/12/07 04:56:46;;;;;;;1.92;1.83;;;15.10;62.50;;;;;;4990640;28;20137;-16
2022/12/07 04:59:12;;;;;;;1.85;1.75;;;15.10;62.50;;;;;;4989083;28;20117;-16
2022/12/07 05:01:37;;;;;;;1.83;1.73;;;15.10;62.40;;;;;;4989071;28;20042;-17
2022/12/07 05:04:03;;;;;;;1.65;1.55;;;15.10;62.40;;;;;;4988042;28;20054;-16
2022/12/07 05:06:29;;;;;;;1.55;1.45;;;15.10;63.30;;;;;;4987748;28;20511;-16
2022/12/07 05:08:54;;;;;;;1.88;1.77;;;15.20;62.80;;;;;;4983606;28;20069;-18
2022/12/07 05:11:38;;;;;;;1.80;1.70;;;15.20;62.30;;;;;;4986578;28;20042;-20
2022/12/07 05:14:08;;;;;;;2.07;1.93;;;15.20;62.50;;;;;;4988305;28;20145;-16
2022/12/07 05:16:33;;;;;;;1.95;1.85;;;15.20;62.90;;;;;;4988360;28;20368;-16
2022/12/07 05:18:59;;;;;;;1.70;1.60;;;15.20;62.70;;;;;;4987542;28;20129;-16
2022/12/07 05:21:24;;;;;;;1.80;1.70;;;15.20;62.90;;;;;;4988722;28;20073;-18
2022/12/07 05:23:50;;;;;;;1.55;1.40;;;15.10;62.80;;;;;;4987360;28;20042;-16
2022/12/07 05:26:16;;;;;;;1.80;1.70;;;15.10;63.00;;;;;;4988466;28;20058;-16
2022/12/07 05:28:41;;;;;;;1.77;1.67;;;15.10;63.00;;;;;;4988776;28;20053;-16
2022/12/07 05:31:07;;;;;;;1.90;1.80;;;15.00;63.10;;;;;;4987056;28;20054;-16
2022/12/07 05:33:33;;;;;;;1.60;1.50;;;15.00;63.30;;;;;;4987069;28;20054;-16
2022/12/07 05:35:58;;;;;;;1.80;1.70;;;15.00;63.20;;;;;;4983260;28;20508;-16
2022/12/07 05:38:24;;;;;;;1.90;1.80;;;15.00;63.20;;;;;;4988564;28;20053;-16
2022/12/07 05:40:50;;;;;;;1.60;1.50;;;15.10;63.40;;;;;;4985241;28;20109;-20
2022/12/07 05:43:16;;;;;;;1.90;1.80;;;15.10;63.40;;;;;;4987506;28;20042;-19
2022/12/07 05:45:41;;;;;;;1.60;1.50;;;15.00;63.40;;;;;;4987174;28;20042;-16
2022/12/07 05:48:07;;;;;;;1.95;1.85;;;15.00;63.20;;;;;;4988165;28;20411;-16
2022/12/07 05:50:33;;;;;;;1.70;1.60;;;15.10;63.40;;;;;;4987229;28;20057;-16
2022/12/07 05:52:58;;;;;;;1.60;1.50;;;15.10;63.40;;;;;;4985473;28;20038;-17
2022/12/07 05:55:24;;;;;;;1.52;1.42;;;15.10;63.20;;;;;;4982086;28;20054;-16
2022/12/07 06:00:34;;;;;;;1.63;1.52;;;15.10;63.20;;;;;;4983365;28;20214;-16
2022/12/07 06:02:59;;;;;;;1.50;1.40;;;15.10;63.20;;;;;;4986335;28;21033;-16
2022/12/07 06:05:25;;;;;;;1.70;1.60;;;15.00;63.20;;;;;;4986384;28;20046;-16
2022/12/07 06:07:50;;;;;;;1.70;1.60;;;15.00;63.30;;;;;;4986003;28;20403;-25
2022/12/07 06:10:16;;;;;;;1.60;1.50;;;15.00;63.30;;;;;;4982710;28;20042;-16
2022/12/07 06:12:43;;;;;;;1.20;1.20;;;15.00;63.40;;;;;;4986476;28;20047;-16
2022/12/07 06:15:09;;;;;;;1.40;1.30;;;15.00;63.40;;;;;;4986045;28;20058;-16
2022/12/07 06:17:35;;;;;;;1.50;1.40;;;15.00;63.30;;;;;;4986028;28;20167;-16
2022/12/07 06:20:01;;;;;;;1.13;1.13;;;15.00;63.40;;;;;;4985115;28;20111;-16
2022/12/07 06:22:26;;;;;;;1.42;1.40;;;15.10;63.20;;;;;;4984441;28;20072;-16
2022/12/07 06:24:53;;;;;;;1.25;1.25;;;15.10;63.20;;;;;;4987081;28;20061;-16
2022/12/07 06:27:18;;;;;;;1.67;1.58;;;15.10;63.20;;;;;;4985867;28;20121;-16
2022/12/07 06:29:44;;;;;;;1.60;1.50;;;15.10;63.20;;;;;;4986192;28;20539;-16
2022/12/07 06:32:09;;;;;;;1.48;1.48;;;15.00;63.20;;;;;;4982668;28;20047;-16
2022/12/07 06:34:35;;;;;;;1.48;1.38;;;15.00;63.20;;;;;;4984526;28;20472;-16
2022/12/07 06:37:00;;;;;;;1.65;1.55;;;15.00;63.20;;;;;;4985559;28;20045;-16
2022/12/07 06:39:27;;;;;;;1.63;1.52;;;15.00;63.40;;;;;;4984669;28;20447;-16
2022/12/07 06:41:53;;;;;;;1.20;1.20;;;15.00;63.30;;;;;;4982380;28;20054;-16
2022/12/07 06:44:19;;;;;;;1.60;1.50;;;15.00;63.40;;;;;;4983101;28;20034;-16
2022/12/07 06:46:45;;;;;;;1.58;1.48;;;15.00;63.30;;;;;;4984135;28;20054;-16
2022/12/07 06:49:11;;;;;;;1.40;1.30;;;15.00;63.30;;;;;;4984902;28;20474;-16
2022/12/07 06:51:40;;;;;;;1.20;1.20;;;15.00;63.40;;;;;;4980893;28;21334;-32
2022/12/07 06:54:13;;;;;;;1.27;1.20;;;15.00;63.20;;;;;;4756471;28;10000865;-33
2022/12/07 06:56:39;;;;;;;1.13;1.13;;;15.00;63.20;;;;;;4975970;28;20603;-34
2022/12/07 06:59:06;;;;;;;1.05;1.05;;;15.00;63.10;;;;;;4979414;28;20088;-32
2022/12/07 07:01:31;;;;;;;1.55;1.45;;;15.10;63.00;;;;;;4980634;28;20446;-31
2022/12/07 07:03:57;;;;;;;1.73;1.45;;;15.10;63.00;;;;;;4981414;28;20061;-35
2022/12/07 07:06:23;;;;;;;1.50;1.40;;;15.10;63.30;;;;;;4976049;28;20046;-31
2022/12/07 07:08:48;;;;;;;1.10;1.10;;;15.10;63.20;;;;;;4979061;28;21214;-32
2022/12/07 07:11:14;;;;;;;1.25;1.20;;;15.10;63.30;;;;;;4978556;28;20451;-30
2022/12/07 07:13:39;;;;;;;1.55;1.48;;;15.10;64.00;;;;;;4981307;28;20037;-36
2022/12/07 07:16:06;;;;;;;1.15;1.15;;;15.00;63.30;;;;;;4979147;28;20487;-33
2022/12/07 07:18:31;;;;;;;1.30;1.30;;;15.00;63.40;;;;;;4980381;28;20042;-31
2022/12/07 07:20:57;;;;;;;1.30;1.30;;;15.00;63.50;;;;;;4979989;28;20042;-34
2022/12/07 07:23:23;;;;;;;1.13;1.13;;;15.00;63.50;;;;;;4971977;28;20049;-31
2022/12/07 07:25:48;;;;;;;1.10;1.10;;;15.10;63.50;;;;;;4981277;28;20161;-30
2022/12/07 07:28:15;;;;;;;1.13;1.13;;;15.10;63.40;;;;;;4979801;28;20042;-31
2022/12/07 07:30:40;;;;;;;1.42;1.33;;;15.00;63.40;;;;;;4977078;28;20479;-35
2022/12/07 07:33:06;;;;;;;1.10;1.10;;;15.00;63.00;;;;;;4981591;28;20499;-32
2022/12/07 07:35:32;;;;;;;1.00;1.00;;;15.10;62.70;;;;;;4983203;28;20050;-33
2022/12/07 07:37:58;;;;;;;1.20;1.20;;;15.00;62.80;;;;;;4975927;28;20038;-32
2022/12/07 07:40:24;;;;;;;1.38;1.27;;;15.10;62.70;;;;;;4978916;28;20046;-34
2022/12/07 07:42:53;;;;;;;1.40;1.40;;;15.10;62.80;;;;;;4981605;28;20047;-33
2022/12/07 07:45:22;;;;;;;2.00;1.30;;;15.20;62.70;;;;;;4977493;28;20034;-32
2022/12/07 07:47:48;;;;;;;1.30;1.30;;;15.10;62.60;;;;;;4977442;28;20599;-31
2022/12/07 07:50:14;;;;;;;2.60;1.20;;;15.10;62.60;;;;;;4984784;28;20056;-35
2022/12/07 07:52:39;;;;;;;1.00;1.00;;;15.00;63.00;;;;;;4984682;28;20133;-31
2022/12/07 07:55:05;;;;;;;1.20;1.20;;;15.00;62.90;;;;;;4984676;28;20049;-32
2022/12/07 07:57:31;;;;;;;1.25;1.15;;;14.90;62.50;;;;;;4986956;28;20137;-32
2022/12/07 07:59:57;;;;;;;1.20;1.10;;;15.00;62.60;;;;;;4987574;28;20161;-31
2022/12/07 08:02:23;;;;;;;1.08;1.08;;;15.00;62.70;;;;;;4986117;28;20042;-33
2022/12/07 08:04:48;;;;;;;1.30;1.20;;;15.00;62.80;;;;;;4987788;28;20050;-30
2022/12/07 08:07:14;;;;;;;2.00;1.15;;;15.00;62.70;;;;;;4986502;28;20507;-33
2022/12/07 08:09:40;;;;;;;1.20;1.20;;;15.00;62.60;;;;;;4985742;28;20045;-32
2022/12/07 08:12:05;;;;;;;1.02;1.02;;;15.00;62.50;;;;;;4985706;28;20121;-33
2022/12/07 08:14:31;;;;;;;0.90;0.90;;;14.90;62.60;;;;;;4986405;28;20046;-36
2022/12/07 08:16:57;;;;;;;0.90;0.90;;;14.90;62.60;;;;;;4989387;28;20042;-31
2022/12/07 08:19:22;;;;;;;0.98;0.98;;;14.90;62.60;;;;;;4990384;28;20148;-26
2022/12/07 08:21:48;;;;;;;1.00;1.00;;;14.90;62.70;;;;;;4989922;28;20060;-34
2022/12/07 08:24:13;;;;;;;1.00;1.00;;;15.00;62.60;;;;;;4990013;28;20050;-31
2022/12/07 08:26:39;;;;;;;1.55;1.45;;;15.00;62.50;;;;;;4990318;28;20161;-31
2022/12/07 08:29:05;;;;;;;1.20;1.10;;;14.90;62.30;;;;;;4989731;28;20039;-32
2022/12/07 08:31:31;;;;;;;1.17;1.10;;;14.90;62.40;;;;;;4990661;28;20491;-31
2022/12/07 08:33:57;;;;;;;0.90;0.90;;;14.90;62.50;;;;;;4990691;28;20122;-34
2022/12/07 08:36:22;;;;;;;1.08;1.08;;;14.90;62.30;;;;;;4989931;28;20039;-33
2022/12/07 08:38:48;;;;;;;1.50;0.98;;;14.90;62.30;;;;;;4989651;28;20074;-35
2022/12/07 08:41:14;;;;;;;1.08;1.08;;;14.90;62.20;;;;;;4990625;28;20082;-35
2022/12/07 08:43:39;;;;;;;0.90;0.90;;;15.00;62.20;;;;;;4989061;28;20467;-32
2022/12/07 08:46:08;;;;;;;1.08;0.98;;;14.90;62.10;;;;;;4990530;28;20046;-32
2022/12/07 08:48:33;;;;;;;1.15;0.82;;;14.90;62.10;;;;;;4989573;28;20528;-30
2022/12/07 08:50:59;;;;;;;0.90;0.90;;;14.90;62.10;;;;;;4985976;28;20074;-32
2022/12/07 08:53:25;;;;;;;1.95;1.13;;;14.90;62.10;;;;;;4988562;28;20038;-30
2022/12/07 08:55:50;;;;;;;0.98;0.98;;;15.00;62.00;;;;;;4989167;28;20512;-33
2022/12/07 08:58:16;;;;;;;0.90;0.90;;;15.00;62.10;;;;;;4985602;28;20097;-34
2022/12/07 09:00:41;;;;;;;0.90;0.90;;;15.00;62.10;;;;;;5017693;28;20054;-35
2022/12/07 09:03:07;;;;;;;0.95;0.95;;;14.90;62.00;;;;;;4985771;28;20055;-32
2022/12/07 09:05:33;;;;;;;0.80;0.80;;;14.90;62.10;;;;;;4986268;28;20046;-33
2022/12/07 09:08:00;;;;;;;1.00;0.90;;;14.90;61.90;;;;;;4989662;28;20058;-33
2022/12/07 09:10:26;;;;;;;0.98;0.98;;;15.00;61.80;;;;;;4988852;28;20030;-29
2022/12/07 09:12:52;;;;;;;0.85;0.85;;;15.00;61.80;;;;;;4989496;28;20046;-34
2022/12/07 09:15:17;;;;;;;1.10;1.10;;;14.90;61.90;;;;;;4989741;28;20061;-34
2022/12/07 09:17:43;;;;;;;1.10;0.80;;;15.00;61.90;;;;;;4989390;28;20062;-33
2022/12/07 09:20:09;;;;;;;0.80;0.80;;;15.00;61.90;;;;;;4990521;28;20042;-33
2022/12/07 09:22:35;;;;;;;0.85;0.85;;;14.90;61.70;;;;;;4988075;28;20153;-33
2022/12/07 09:25:01;;;;;;;0.90;0.90;;;14.90;61.60;;;;;;4989924;28;20582;-33
2022/12/07 09:27:26;;;;;;;1.05;1.05;;;15.00;61.90;;;;;;4988736;28;20048;-30
2022/12/07 09:29:52;;;;;;;0.90;0.82;;;15.00;61.70;;;;;;4988933;28;20097;-30
2022/12/07 09:32:18;;;;;;;1.00;1.00;;;15.00;61.70;;;;;;4989758;28;20531;-31
2022/12/07 09:34:43;;;;;;;0.80;0.80;;;15.00;61.70;;;;;;4988551;28;20042;-31
2022/12/07 09:37:09;;;;;;;0.73;0.73;;;15.00;61.70;;;;;;4987966;28;20039;-31
2022/12/07 09:39:37;;;;;;;0.95;0.85;;;15.00;61.50;;;;;;4988892;28;20026;-35
2022/12/07 09:42:03;;;;;;;0.80;0.80;;;15.00;61.60;;;;;;4987710;28;20096;-31
2022/12/07 09:44:29;;;;;;;1.00;1.00;;;15.00;61.60;;;;;;4986850;28;20042;-33
2022/12/07 09:46:56;;;;;;;1.00;1.00;;;15.00;61.70;;;;;;4988949;28;20046;-35
2022/12/07 09:49:23;;;;;;;0.90;0.90;;;15.00;61.60;;;;;;4987777;28;20121;-34
2022/12/07 09:52:03;;;;;;;0.80;0.80;;;14.90;61.70;;;;;;4985899;28;20046;-35
2022/12/07 09:54:28;;;;;;;1.20;1.20;;;14.90;61.60;;;;;;4982395;28;20038;-33
2022/12/07 09:56:54;;;;;;;0.98;0.98;;;14.90;61.60;;;;;;4987872;28;20399;-32
2022/12/07 09:59:20;;;;;;;0.90;0.90;;;15.00;61.70;;;;;;4988921;28;20042;-33
2022/12/07 10:01:49;;;;;;;0.90;0.90;;;14.90;61.50;;;;;;4989138;28;20058;-31
2022/12/07 10:04:41;;;;;;;0.85;0.85;;;14.90;61.60;;;;;;4987548;28;20112;-31
2022/12/07 10:07:06;;;;;;;0.85;0.85;;;14.90;61.50;;;;;;4979155;28;20125;-31
2022/12/07 10:09:35;;;;;;;0.90;0.90;;;15.00;61.60;;;;;;4989110;28;20121;-30
2022/12/07 10:12:18;;;;;;;0.80;0.80;;;15.00;61.60;;;;;;4989248;28;20031;-31
2022/12/07 10:14:54;;;;;;;0.90;0.90;;;14.90;61.50;;;;;;4987582;28;20042;-33
2022/12/07 10:17:30;;;;;;;1.00;1.00;;;14.90;61.50;;;;;;4987137;28;20030;-33
2022/12/07 10:20:11;;;;;;;0.80;0.80;;;14.90;61.60;;;;;;4987976;28;20515;-33
2022/12/07 10:22:37;;;;;;;1.00;1.00;;;15.00;61.70;;;;;;4988071;28;20044;-31
2022/12/07 10:25:17;;;;;;;0.90;0.90;;;14.90;61.50;;;;;;4988375;28;20038;-30
2022/12/07 10:27:43;;;;;;;0.98;0.98;;;14.90;61.60;;;;;;4985112;28;20518;-31
2022/12/07 10:30:13;;;;;;;1.00;1.00;;;14.90;61.60;;;;;;4988410;28;20042;-32
2022/12/07 10:32:38;;;;;;;1.15;1.15;;;14.90;61.60;;;;;;4985589;28;20118;-30
2022/12/07 10:35:22;;;;;;;0.90;0.90;;;14.90;61.50;;;;;;4988539;28;20615;-33
2022/12/07 10:37:48;;;;;;;1.83;0.80;;;14.90;61.50;;;;;;4986875;28;20093;-33
2022/12/07 10:40:27;;;;;;;0.80;0.80;;;15.00;61.50;;;;;;4983221;28;20041;-31
2022/12/07 10:43:05;;;;;;;1.20;1.10;;;14.90;61.40;;;;;;4986964;28;20046;-33
2022/12/07 10:45:32;;;;;;;0.90;0.90;;;14.90;61.50;;;;;;4986675;28;20053;-27
2022/12/07 10:48:06;;;;;;;1.00;1.00;;;14.90;61.40;;;;;;4982893;28;20035;-34
2022/12/07 10:50:59;;;;;;;0.88;0.88;;;14.90;61.50;;;;;;4981881;28;20037;-31
2022/12/07 10:53:37;;;;;;;0.90;0.90;;;14.90;61.40;;;;;;5014528;28;20671;-33
2022/12/07 10:56:44;;;;;;;1.00;1.00;;;14.90;61.50;;;;;;4987432;28;20050;-32
2022/12/07 10:59:20;;;;;;;0.85;0.85;;;14.90;61.50;;;;;;5012433;28;20120;-30
2022/12/07 11:01:54;;;;;;;1.13;1.13;;;14.90;61.40;;;;;;4985172;28;20046;-38
2022/12/07 11:04:23;;;;;;;0.90;0.90;;;14.90;61.50;;;;;;4983168;28;20081;-34
2022/12/07 11:06:54;;;;;;;1.00;1.00;;;14.90;61.40;;;;;;4982949;28;20052;-33
2022/12/07 11:09:31;;;;;;;1.27;1.20;;;14.90;61.40;;;;;;4980389;28;20066;-37
2022/12/07 11:12:06;;;;;;;0.80;0.80;;;14.90;61.40;;;;;;4976347;28;20046;-34
2022/12/07 11:14:44;;;;;;;0.95;0.90;;;14.90;61.40;;;;;;4960925;28;20054;-33
2022/12/07 11:17:14;;;;;;;0.93;0.93;;;14.90;61.50;;;;;;4964423;28;21535;-36
2022/12/07 11:19:51;;;;;;;1.00;1.00;;;14.90;61.80;;;;;;4961391;28;20527;-33
2022/12/07 11:22:54;;;;;;;0.90;0.90;;;14.90;61.70;;;;;;4965510;28;20054;-39
2022/12/07 11:25:32;;;;;;;1.42;1.33;;;14.90;61.90;;;;;;4970753;28;20069;-30
2022/12/07 11:28:06;;;;;;;0.90;0.90;;;14.90;61.90;;;;;;4966720;28;20110;-39
2022/12/07 11:30:53;;;;;;;;;;;15.10;61.30;;;;;;4972016;28;20692;-38
2022/12/07 11:33:29;;;;;;;1.00;1.00;;;15.00;61.40;;;;;;4969166;28;20928;-32
2022/12/07 11:36:22;;;;;;;0.90;0.90;;;14.90;61.50;;;;;;4958436;28;20062;-34
2022/12/07 11:38:50;;;;;;;1.17;1.17;;;14.90;61.50;;;;;;4971647;28;20592;-35
2022/12/07 11:41:20;;;;;;;1.67;1.58;;;15.00;61.80;;;;;;4971049;28;20050;-32
2022/12/07 11:43:56;;;;;;;1.58;1.48;;;15.00;61.40;;;;;;4971933;28;20054;-31
2022/12/07 11:46:24;;;;;;;1.58;1.48;;;15.00;61.70;;;;;;4969382;28;20177;-33
2022/12/07 11:49:02;;;;;;;1.60;1.50;;;14.90;61.90;;;;;;4967548;28;20046;-32
2022/12/07 11:51:29;;;;;;;1.75;1.65;;;15.00;61.80;;;;;;4970085;28;20113;-32
2022/12/07 11:53:57;;;;;;;2.00;1.90;;;14.90;61.90;;;;;;4972130;28;20053;-30
2022/12/07 11:56:27;;;;;;;2.47;1.92;;;15.00;61.90;;;;;;4971207;28;20054;-31
2022/12/07 11:59:04;;;;;;;2.45;2.28;;;15.00;62.00;;;;;;4973656;28;20046;-30
2022/12/07 12:01:41;;;;;;;2.63;2.53;;;14.90;62.00;;;;;;4972583;28;20129;-33
2022/12/07 12:04:10;;;;;;;3.33;3.03;;;14.90;62.20;;;;;;4957223;28;20108;-30
2022/12/07 12:06:39;;;;;;;3.88;3.17;;;15.00;62.10;;;;;;4973548;28;20105;-26
2022/12/07 12:09:11;;;;;;;4.25;3.95;;;15.00;62.10;;;;;;4970804;28;21458;-34
2022/12/07 12:11:39;;;;;;;3.72;3.53;;;15.10;61.90;;;;;;4972627;28;20046;-29
2022/12/07 12:14:08;;;;;;;3.75;3.30;;;15.00;62.00;;;;;;4971563;28;20050;-30
2022/12/07 12:16:52;;;;;;;5.20;3.10;;;15.00;62.10;;;;;;4975089;28;20058;-32
2022/12/07 12:19:27;;;;;;;;;;;15.00;62.00;;;;;;4973373;28;20046;-30
2022/12/07 12:22:00;;;;;;;3.63;3.30;;;15.10;61.90;;;;;;4973644;28;19918;-34
2022/12/07 12:24:26;;;;;;;3.80;3.25;;;15.10;61.90;;;;;;4972480;28;20080;-30
2022/12/07 12:27:01;;;;;;;3.42;3.22;;;15.10;61.90;;;;;;4972007;28;20046;-38
2022/12/07 12:29:38;;;;;;;4.22;3.38;;;15.10;61.90;;;;;;4970946;28;20426;-31
2022/12/07 12:32:40;;;;;;;3.55;3.35;;;15.10;61.80;;;;;;4970744;28;20435;-31
2022/12/07 12:35:31;;;;;;;3.38;3.17;;;15.10;61.80;;;;;;4964090;28;20058;-32
2022/12/07 12:38:26;;;;;;;3.88;3.35;;;15.00;62.00;;;;;;4970366;28;20045;-35
2022/12/07 12:40:52;;;;;;;3.20;3.00;;;15.00;62.00;;;;;;4972363;28;20116;-30
2022/12/07 12:43:44;;;;;;;3.55;3.20;;;15.00;62.10;;;;;;4987088;28;20976;-31
2022/12/07 12:46:33;;;;;;;3.58;3.10;;;15.00;62.10;;;;;;4973784;28;20046;-33
2022/12/07 12:49:20;;;;;;;3.65;3.45;;;15.00;62.00;;;;;;4970943;28;20095;-30
2022/12/07 12:51:46;;;;;;;3.45;3.17;;;15.00;62.00;;;;;;4971201;28;20053;-30
2022/12/07 12:54:18;;;;;;;3.70;3.15;;;15.10;62.00;;;;;;4973677;28;20050;-32
2022/12/07 12:56:47;;;;;;;3.58;3.30;;;15.00;61.70;;;;;;4972663;28;20058;-30
2022/12/07 12:59:32;;;;;;;3.15;2.95;;;15.00;61.80;;;;;;4969146;28;20401;-33
2022/12/07 13:02:22;;;;;;;2.83;2.60;;;15.10;61.80;;;;;;4972497;28;20225;-31